createdAt,value
2024-05-09T00:01:07.847Z,2.80
2024-05-09T00:04:12.659Z,3.00
2024-05-09T00:07:17.367Z,3.72
2024-05-09T00:10:33.167Z,3.63
2024-05-09T00:13:41.347Z,3.33
2024-05-09T00:16:46.042Z,3.70
2024-05-09T00:19:50.809Z,3.05
2024-05-09T00:22:55.528Z,3.45
2024-05-09T00:26:02.717Z,2.70
2024-05-09T00:29:07.416Z,3.20
2024-05-09T00:32:12.055Z,3.13
2024-05-09T00:35:16.841Z,3.05
2024-05-09T00:38:21.491Z,3.25
2024-05-09T00:41:28.867Z,2.70
2024-05-09T00:44:33.594Z,2.70
2024-05-09T00:47:38.779Z,2.87
2024-05-09T00:50:45.298Z,2.45
2024-05-09T00:53:50.753Z,2.95
2024-05-09T00:56:59.032Z,2.65
2024-05-09T01:00:06.074Z,2.60
2024-05-09T01:03:14.102Z,2.77
2024-05-09T01:06:19.293Z,2.50
2024-05-09T01:09:23.994Z,2.83
2024-05-09T01:12:31.417Z,2.80
2024-05-09T01:15:36.836Z,2.60
2024-05-09T01:18:41.682Z,3.10
2024-05-09T01:21:46.674Z,2.72
2024-05-09T01:24:54.485Z,3.20
2024-05-09T01:27:58.998Z,2.60
2024-05-09T01:31:03.646Z,3.00
2024-05-09T01:34:08.251Z,2.80
2024-05-09T01:37:12.907Z,3.05
2024-05-09T01:40:25.366Z,3.25
2024-05-09T01:43:38.595Z,2.63
2024-05-09T01:46:43.281Z,3.15
2024-05-09T01:49:47.905Z,2.80
2024-05-09T01:52:52.657Z,2.90
2024-05-09T01:55:59.863Z,3.00
2024-05-09T01:59:05.063Z,2.85
2024-05-09T02:02:10.217Z,2.90
2024-05-09T02:05:15.081Z,2.47
2024-05-09T02:08:21.853Z,2.80
2024-05-09T02:11:29.394Z,2.70
2024-05-09T02:14:34.077Z,2.80
2024-05-09T02:17:38.913Z,3.13
2024-05-09T02:20:44.399Z,3.10
2024-05-09T02:23:49.008Z,2.85
2024-05-09T02:26:56.163Z,3.03
2024-05-09T02:30:00.774Z,3.08
2024-05-09T02:33:05.739Z,2.95
2024-05-09T02:36:10.461Z,3.00
2024-05-09T02:39:12.414Z,2.80
2024-05-09T02:42:19.625Z,2.88
2024-05-09T02:45:21.522Z,3.08
2024-05-09T02:48:26.684Z,3.03
2024-05-09T02:51:28.742Z,3.20
2024-05-09T02:54:33.307Z,3.28
2024-05-09T02:57:37.906Z,3.22
2024-05-09T03:00:43.268Z,3.10
2024-05-09T03:03:45.908Z,3.10
2024-05-09T03:06:50.879Z,2.88
2024-05-09T03:09:52.813Z,2.90
2024-05-09T03:13:00.200Z,3.25
2024-05-09T03:16:02.197Z,3.30
2024-05-09T03:19:06.955Z,3.25
2024-05-09T03:22:08.994Z,3.08
2024-05-09T03:25:13.835Z,2.83
2024-05-09T03:28:21.075Z,2.75
2024-05-09T03:31:23.059Z,3.10
2024-05-09T03:34:28.018Z,2.50
2024-05-09T03:37:32.922Z,3.03
2024-05-09T03:40:37.595Z,3.53
2024-05-09T03:43:46.822Z,3.13
2024-05-09T03:46:51.735Z,3.45
2024-05-09T03:49:53.725Z,2.78
2024-05-09T03:52:58.343Z,2.85
2024-05-09T03:56:00.484Z,3.13
2024-05-09T03:59:07.716Z,3.35
2024-05-09T04:02:09.897Z,3.42
2024-05-09T04:05:14.589Z,3.25
2024-05-09T04:08:16.817Z,3.50
2024-05-09T04:11:21.683Z,3.03
2024-05-09T04:14:26.453Z,3.30
2024-05-09T04:17:31.296Z,3.70
2024-05-09T04:20:38.639Z,3.47
2024-05-09T04:23:45.245Z,3.58
2024-05-09T04:26:52.422Z,3.47
2024-05-09T04:29:57.031Z,3.47
2024-05-09T04:33:01.906Z,3.55
2024-05-09T04:36:07.028Z,3.53
2024-05-09T04:39:08.914Z,3.60
2024-05-09T04:42:13.421Z,3.63
2024-05-09T04:45:17.967Z,3.40
2024-05-09T04:48:22.689Z,3.50
2024-05-09T04:51:25.330Z,3.60
2024-05-09T04:54:35.966Z,3.50
2024-05-09T04:57:38.830Z,3.07
2024-05-09T05:00:46.043Z,3.40
2024-05-09T05:03:48.297Z,3.90
2024-05-09T05:06:52.844Z,3.30
2024-05-09T05:09:55.052Z,3.75
2024-05-09T05:13:15.312Z,3.33
2024-05-09T05:16:22.481Z,3.25
2024-05-09T05:19:24.519Z,3.85
2024-05-09T05:22:29.383Z,3.70
2024-05-09T05:25:31.966Z,3.20
2024-05-09T05:28:36.587Z,3.70
2024-05-09T05:31:41.205Z,3.65
2024-05-09T05:34:45.805Z,3.38
2024-05-09T05:37:47.787Z,3.45
2024-05-09T05:40:52.471Z,3.15
2024-05-09T05:43:57.022Z,3.00
2024-05-09T05:47:01.822Z,3.25
2024-05-09T05:50:17.601Z,3.00
2024-05-09T05:53:46.320Z,3.40
2024-05-09T05:56:50.857Z,3.40
2024-05-09T05:59:52.898Z,2.90
2024-05-09T06:03:00.298Z,3.22
2024-05-09T06:06:05.856Z,3.42
2024-05-09T06:09:08.013Z,2.90
2024-05-09T06:12:12.801Z,2.90
2024-05-09T06:15:14.855Z,3.30
2024-05-09T06:18:22.436Z,3.17
2024-05-09T06:21:24.586Z,3.40
2024-05-09T06:24:29.244Z,3.03
2024-05-09T06:27:31.162Z,3.00
2024-05-09T06:30:40.196Z,2.78
2024-05-09T06:33:49.166Z,3.20
2024-05-09T06:36:51.123Z,2.95
2024-05-09T06:39:55.659Z,3.15
2024-05-09T06:42:59.251Z,3.33
2024-05-09T06:46:04.160Z,2.90
2024-05-09T06:49:13.731Z,3.00
2024-05-09T06:52:19.524Z,2.60
2024-05-09T06:55:24.366Z,3.20
2024-05-09T06:58:26.271Z,3.10
2024-05-09T07:01:30.967Z,2.88
2024-05-09T07:04:35.759Z,2.85
2024-05-09T07:07:40.423Z,2.67
2024-05-09T07:10:45.140Z,3.30
2024-05-09T07:13:47.156Z,2.97
2024-05-09T07:16:51.897Z,2.58
2024-05-09T07:19:56.610Z,2.60
2024-05-09T07:23:01.684Z,3.03
2024-05-09T07:26:03.843Z,2.80
2024-05-09T07:29:08.649Z,2.60
2024-05-09T07:32:10.722Z,2.38
2024-05-09T07:35:18.149Z,3.10
2024-05-09T07:38:20.318Z,2.45
2024-05-09T07:41:25.118Z,2.40
2024-05-09T07:44:27.186Z,2.70
2024-05-09T07:48:57.488Z,2.45
2024-05-09T07:52:45.954Z,2.70
2024-05-09T07:54:21.978Z,2.35
2024-05-09T07:57:27.251Z,2.67
2024-05-09T08:00:32.287Z,2.53
2024-05-09T08:03:34.841Z,2.83
2024-05-09T08:06:42.704Z,2.70
2024-05-09T08:09:48.809Z,2.60
2024-05-09T08:12:54.035Z,2.60
2024-05-09T08:15:56.101Z,2.47
2024-05-09T08:19:00.891Z,2.47
2024-05-09T08:22:07.285Z,2.50
2024-05-09T08:25:15.589Z,2.13
2024-05-09T08:28:20.302Z,2.40
2024-05-09T08:31:25.142Z,2.28
2024-05-09T08:34:27.175Z,2.37
2024-05-09T08:37:38.737Z,2.53
2024-05-09T08:40:42.864Z,2.10
2024-05-09T08:43:47.604Z,2.40
2024-05-09T08:46:51.788Z,2.00
2024-05-09T08:49:58.669Z,2.23
2024-05-09T08:53:06.065Z,2.43
2024-05-09T08:56:11.491Z,2.10
2024-05-09T08:59:23.628Z,2.20
2024-05-09T09:02:26.706Z,2.30
2024-05-09T09:05:34.267Z,2.43
2024-05-09T09:08:39.652Z,2.15
2024-05-09T09:11:44.365Z,2.13
2024-05-09T09:14:46.242Z,2.00
2024-05-09T09:17:57.330Z,2.50
2024-05-09T09:21:02.885Z,2.03
2024-05-09T09:24:09.961Z,2.33
2024-05-09T09:27:16.662Z,2.17
2024-05-09T09:30:34.001Z,2.20
2024-05-09T09:33:44.922Z,2.13
2024-05-09T09:36:50.683Z,1.90
2024-05-09T09:39:55.573Z,2.20
2024-05-09T09:43:00.747Z,2.20
2024-05-09T09:46:07.207Z,2.20
2024-05-09T09:49:12.968Z,2.00
2024-05-09T09:52:15.462Z,2.40
2024-05-09T09:55:25.217Z,1.98
2024-05-09T09:58:29.383Z,1.98
2024-05-09T10:01:34.701Z,1.90
2024-05-09T10:04:40.847Z,2.27
2024-05-09T10:07:45.764Z,2.17
2024-05-09T10:10:53.993Z,2.20
2024-05-09T10:13:57.597Z,2.28
2024-05-09T10:17:07.342Z,2.00
2024-05-09T10:20:14.748Z,1.80
2024-05-09T10:23:27.506Z,1.80
2024-05-09T10:26:36.482Z,2.10
2024-05-09T10:29:41.030Z,1.85
2024-05-09T10:32:45.184Z,2.05
2024-05-09T10:35:54.327Z,1.93
2024-05-09T10:38:56.348Z,1.90
2024-05-09T10:42:03.967Z,1.98
2024-05-09T10:45:09.521Z,2.03
2024-05-09T10:48:12.062Z,2.05
2024-05-09T10:51:16.846Z,2.00
2024-05-09T10:54:21.431Z,1.92
2024-05-09T10:57:27.384Z,1.98
2024-05-09T11:00:36.195Z,2.40
2024-05-09T11:03:39.710Z,1.92
2024-05-09T11:06:44.954Z,2.00
2024-05-09T11:09:47.872Z,1.95
2024-05-09T11:12:55.120Z,2.10
2024-05-09T11:16:00.253Z,1.90
2024-05-09T11:19:02.589Z,1.90
2024-05-09T11:22:07.664Z,2.03
2024-05-09T11:25:13.052Z,2.00
2024-05-09T11:28:18.037Z,2.35
2024-05-09T11:31:22.771Z,2.20
2024-05-09T11:34:27.510Z,2.17
2024-05-09T11:37:31.354Z,1.90
2024-05-09T11:40:36.990Z,1.90
2024-05-09T11:43:44.151Z,1.90
2024-05-09T11:46:46.191Z,1.90
2024-05-09T11:49:50.758Z,2.08
2024-05-09T11:52:52.783Z,1.97
2024-05-09T11:55:57.347Z,1.70
2024-05-09T11:59:04.557Z,2.00
2024-05-09T12:02:06.756Z,1.50
2024-05-09T12:05:11.401Z,1.90
2024-05-09T12:08:14.351Z,1.90
2024-05-09T12:11:19.067Z,2.05
2024-05-09T12:14:26.275Z,2.10
2024-05-09T12:17:31.082Z,1.90
2024-05-09T12:20:37.601Z,1.85
2024-05-09T12:23:44.241Z,2.00
2024-05-09T12:26:46.303Z,2.00
2024-05-09T12:29:53.425Z,2.00
2024-05-09T12:32:55.546Z,2.05
2024-05-09T12:36:00.412Z,1.90
2024-05-09T12:39:02.925Z,1.63
2024-05-09T12:42:08.288Z,1.90
2024-05-09T12:45:13.690Z,1.90
2024-05-09T12:48:18.447Z,1.80
2024-05-09T12:51:23.098Z,1.80
2024-05-09T12:54:25.002Z,2.00
2024-05-09T12:57:29.816Z,1.88
2024-05-09T13:00:34.912Z,1.92
2024-05-09T13:03:39.772Z,1.73
2024-05-09T13:06:44.605Z,1.92
2024-05-09T13:09:46.740Z,1.70
2024-05-09T13:12:51.602Z,1.90
2024-05-09T13:15:56.174Z,1.60
2024-05-09T13:19:00.900Z,1.42
2024-05-09T13:22:02.894Z,1.75
2024-05-09T13:25:08.190Z,1.70
2024-05-09T13:28:10.440Z,1.92
2024-05-09T13:31:18.188Z,1.90
2024-05-09T13:34:20.412Z,2.05
2024-05-09T13:37:25.149Z,1.80
2024-05-09T13:40:32.939Z,1.80
2024-05-09T13:43:39.986Z,2.15
2024-05-09T13:46:44.645Z,1.77
2024-05-09T13:49:49.990Z,2.00
2024-05-09T13:52:52.086Z,1.85
2024-05-09T13:55:56.925Z,1.80
2024-05-09T13:58:59.173Z,1.90
2024-05-09T14:02:06.658Z,1.75
2024-05-09T14:05:09.070Z,2.28
2024-05-09T14:08:15.514Z,2.03
2024-05-09T14:11:20.304Z,1.87
2024-05-09T14:14:22.346Z,1.90
2024-05-09T14:17:29.776Z,1.70
2024-05-09T14:20:32.606Z,1.83
2024-05-09T14:23:37.495Z,1.80
2024-05-09T14:26:42.140Z,1.70
2024-05-09T14:29:44.243Z,2.10
2024-05-09T14:32:51.474Z,1.92
2024-05-09T14:35:53.922Z,1.92
2024-05-09T14:38:58.597Z,1.90
2024-05-09T14:42:00.634Z,2.10
2024-05-09T14:45:06.197Z,1.90
2024-05-09T14:48:11.544Z,2.00
2024-05-09T14:51:16.500Z,1.80
2024-05-09T14:54:21.079Z,2.30
2024-05-09T14:57:25.636Z,1.87
2024-05-09T15:00:33.121Z,2.08
2024-05-09T15:03:43.076Z,2.42
2024-05-09T15:06:45.314Z,1.98
2024-05-09T15:09:50.044Z,2.20
2024-05-09T15:12:52.196Z,1.77
2024-05-09T15:15:56.994Z,2.08
2024-05-09T15:19:02.114Z,3.08
2024-05-09T15:22:07.302Z,2.25
2024-05-09T15:25:09.325Z,1.90
2024-05-09T15:28:14.112Z,1.77
2024-05-09T15:31:18.734Z,2.00
2024-05-09T15:34:23.679Z,2.08
2024-05-09T15:37:28.797Z,1.92
2024-05-09T15:40:37.891Z,1.80
2024-05-09T15:43:44.923Z,1.90
2024-05-09T15:46:47.555Z,1.80
2024-05-09T15:49:54.920Z,1.92
2024-05-09T15:52:57.037Z,1.98
2024-05-09T15:56:01.794Z,1.80
2024-05-09T15:59:03.991Z,2.00
2024-05-09T16:02:11.394Z,2.05
2024-05-09T16:05:16.322Z,2.00
2024-05-09T16:08:21.015Z,1.80
2024-05-09T16:11:23.568Z,1.98
2024-05-09T16:14:28.190Z,1.87
2024-05-09T16:17:30.427Z,1.60
2024-05-09T16:20:41.114Z,1.83
2024-05-09T16:23:44.422Z,1.92
2024-05-09T16:26:48.965Z,1.90
2024-05-09T16:29:51.023Z,2.30
2024-05-09T16:32:55.869Z,2.10
2024-05-09T16:36:03.267Z,2.20
2024-05-09T16:39:05.169Z,2.10
2024-05-09T16:42:09.993Z,2.00
2024-05-09T16:45:12.383Z,2.03
2024-05-09T16:48:17.384Z,2.17
2024-05-09T16:51:24.726Z,2.10
2024-05-09T16:54:29.785Z,2.00
2024-05-09T16:57:31.787Z,1.70
2024-05-09T17:00:41.669Z,2.30
2024-05-09T17:03:45.686Z,2.30
2024-05-09T17:06:53.277Z,1.90
2024-05-09T17:09:57.843Z,1.60
2024-05-09T17:13:03.267Z,2.10
2024-05-09T17:16:10.342Z,2.00
2024-05-09T17:19:14.927Z,1.93
2024-05-09T17:22:20.258Z,1.90
2024-05-09T17:25:24.871Z,1.98
2024-05-09T17:28:26.970Z,2.10
2024-05-09T17:31:31.602Z,2.10
2024-05-09T17:34:33.733Z,2.33
2024-05-09T17:37:41.126Z,2.88
2024-05-09T17:40:43.173Z,3.40
2024-05-09T17:43:47.857Z,3.30
2024-05-09T17:46:49.978Z,3.53
2024-05-09T17:49:54.815Z,3.07
2024-05-09T17:52:59.597Z,2.80
2024-05-09T17:56:04.764Z,2.85
2024-05-09T17:59:09.186Z,2.90
2024-05-09T18:02:15.485Z,2.63
2024-05-09T18:05:17.611Z,2.70
2024-05-09T18:08:24.881Z,2.35
2024-05-09T18:11:29.589Z,2.72
2024-05-09T18:14:31.588Z,3.10
2024-05-09T18:17:37.335Z,3.85
2024-05-09T18:20:44.052Z,3.77
2024-05-09T18:23:55.495Z,4.10
2024-05-09T18:27:02.080Z,3.83
2024-05-09T18:30:09.311Z,3.80
2024-05-09T18:33:14.768Z,3.92
2024-05-09T18:36:22.193Z,3.70
2024-05-09T18:39:26.730Z,3.47
2024-05-09T18:42:31.394Z,3.08
2024-05-09T18:45:33.405Z,4.15
2024-05-09T18:48:38.324Z,5.47
2024-05-09T18:51:43.035Z,3.90
2024-05-09T18:54:50.434Z,3.60
2024-05-09T18:57:52.399Z,3.40
2024-05-09T19:00:59.899Z,3.45
2024-05-09T19:04:03.587Z,3.75
2024-05-09T19:07:08.876Z,3.60
2024-05-09T19:10:22.222Z,3.85
2024-05-09T19:13:30.603Z,3.97
2024-05-09T19:16:32.811Z,3.63
2024-05-09T19:19:37.680Z,3.75
2024-05-09T19:22:42.311Z,3.53
2024-05-09T19:25:49.445Z,3.10
2024-05-09T19:28:52.694Z,3.45
2024-05-09T19:31:57.305Z,3.00
2024-05-09T19:35:02.637Z,3.20
2024-05-09T19:38:05.337Z,3.30
2024-05-09T19:41:12.800Z,3.20
2024-05-09T19:44:14.798Z,3.53
2024-05-09T19:47:19.922Z,3.75
2024-05-09T19:50:32.419Z,4.05
2024-05-09T19:53:42.505Z,3.97
2024-05-09T19:56:49.760Z,3.95
2024-05-09T19:59:51.758Z,3.80
2024-05-09T20:02:56.595Z,3.42
2024-05-09T20:05:58.782Z,3.30
2024-05-09T20:09:03.312Z,2.90
2024-05-09T20:12:09.541Z,2.90
2024-05-09T20:15:14.093Z,2.92
2024-05-09T20:18:20.657Z,2.83
2024-05-09T20:21:22.755Z,3.15
2024-05-09T20:24:27.419Z,2.90
2024-05-09T20:27:32.019Z,3.30
2024-05-09T20:30:37.241Z,3.78
2024-05-09T20:33:39.441Z,3.40
2024-05-09T20:36:44.252Z,3.08
2024-05-09T20:39:48.923Z,3.07
2024-05-09T20:42:56.428Z,2.83
2024-05-09T20:46:01.059Z,2.78
2024-05-09T20:49:05.911Z,2.95
2024-05-09T20:52:08.110Z,3.28
2024-05-09T20:55:13.665Z,2.80
2024-05-09T20:58:21.292Z,3.30
2024-05-09T21:01:23.988Z,2.90
2024-05-09T21:04:28.735Z,2.92
2024-05-09T21:07:30.779Z,2.95
2024-05-09T21:10:35.856Z,2.80
2024-05-09T21:13:43.334Z,2.75
2024-05-09T21:16:45.432Z,2.95
2024-05-09T21:19:50.508Z,3.10
2024-05-09T21:22:52.477Z,2.97
2024-05-09T21:25:57.050Z,2.87
2024-05-09T21:29:01.943Z,3.08
2024-05-09T21:32:06.693Z,3.05
2024-05-09T21:35:08.976Z,3.28
2024-05-09T21:38:14.715Z,3.25
2024-05-09T21:41:17.057Z,2.83
2024-05-09T21:44:24.303Z,3.15
2024-05-09T21:47:29.166Z,2.92
2024-05-09T21:50:37.200Z,3.20
2024-05-09T21:53:45.443Z,2.95
2024-05-09T21:56:51.895Z,2.90
2024-05-09T21:59:56.707Z,2.90
2024-05-09T22:03:01.522Z,3.30
2024-05-09T22:06:03.730Z,3.17
2024-05-09T22:09:09.122Z,3.22
2024-05-09T22:12:14.067Z,3.10
2024-05-09T22:15:21.589Z,3.40
2024-05-09T22:18:23.892Z,3.10
2024-05-09T22:21:28.487Z,3.15
2024-05-09T22:24:30.401Z,3.60
2024-05-09T22:27:35.209Z,3.00
2024-05-09T22:30:40.607Z,3.40
2024-05-09T22:33:47.674Z,3.50
2024-05-09T22:36:50.220Z,3.50
2024-05-09T22:39:54.891Z,3.42
2024-05-09T22:42:56.881Z,3.20
2024-05-09T22:46:05.885Z,3.55
2024-05-09T22:49:07.937Z,3.95
2024-05-09T22:52:13.294Z,3.10
2024-05-09T22:55:15.791Z,3.20
2024-05-09T22:58:20.797Z,3.03
2024-05-09T23:01:28.221Z,3.25
2024-05-09T23:04:30.214Z,3.53
2024-05-09T23:07:35.116Z,3.10
2024-05-09T23:10:38.206Z,3.47
2024-05-09T23:13:43.197Z,3.50
2024-05-09T23:16:47.997Z,3.53
2024-05-09T23:19:52.733Z,3.83
2024-05-09T23:22:54.654Z,3.40
2024-05-09T23:25:59.213Z,3.17
2024-05-09T23:29:01.593Z,3.13
2024-05-09T23:32:09.544Z,2.97
2024-05-09T23:35:11.509Z,3.63
2024-05-09T23:38:16.555Z,4.18
2024-05-09T23:41:18.451Z,3.75
2024-05-09T23:44:23.040Z,3.90
2024-05-09T23:47:27.712Z,3.92
2024-05-09T23:50:36.190Z,3.60
2024-05-09T23:53:47.254Z,4.07
2024-05-09T23:56:49.145Z,4.10
2024-05-09T23:59:54.070Z,4.10
